Time;durP1;ratioP1;P1;durP2;ratioP2;P2;SDS_P1;SDS_P2;PMS_P1;PMS_P2;Temp;Humidity;BMP_temperature;BMP_pressure;BME280_temperature;BME280_humidity;BME280_pressure;Samples;Min_cycle;Max_cycle;Signal;HPM_P1;HPM_P2
2022/01/27 00:00:43;;;;;;;31.95;12.77;;;;;;;;;;5147417;27;20073;-59
2022/01/27 00:05:35;;;;;;;30.88;13.55;;;;;;;;;;5146904;27;20587;-59
2022/01/27 00:13:00;;;;;;;31.20;14.38;;;;;;;;;;5147221;27;20051;-59
2022/01/27 00:15:32;;;;;;;34.97;14.82;;;;;;;;;;5147571;27;20070;-58
2022/01/27 00:18:03;;;;;;;27.83;14.65;;;;;;;;;;5147534;27;20047;-59
2022/01/27 00:20:29;;;;;;;31.52;14.18;;;;;;;;;;5145138;27;20043;-60
2022/01/27 00:22:55;;;;;;;34.20;14.75;;;;;;;;;;5146893;27;20043;-59
2022/01/27 00:25:21;;;;;;;29.05;13.35;;;;;;;;;;5146652;27;20104;-59
2022/01/27 00:27:47;;;;;;;30.65;13.75;;;;;;;;;;5146540;27;20047;-59
2022/01/27 00:30:13;;;;;;;27.88;14.57;;;;;;;;;;5146836;27;20101;-59
2022/01/27 00:32:40;;;;;;;32.83;15.50;;;;;;;;;;5147118;27;20514;-59
2022/01/27 00:35:07;;;;;;;34.15;15.13;;;;;;;;;;5146435;27;20078;-59
2022/01/27 00:37:33;;;;;;;34.75;16.15;;;;;;;;;;5146100;27;20050;-59
2022/01/27 00:39:59;;;;;;;28.60;15.85;;;;;;;;;;5146469;27;20051;-58
2022/01/27 00:42:26;;;;;;;34.08;15.20;;;;;;;;;;5146463;27;20047;-58
2022/01/27 00:44:53;;;;;;;31.58;14.63;;;;;;;;;;5146516;27;20555;-58
2022/01/27 00:47:19;;;;;;;38.83;17.50;;;;;;;;;;5146283;27;20062;-58
2022/01/27 00:49:45;;;;;;;36.65;17.13;;;;;;;;;;5146351;27;20370;-59
2022/01/27 00:52:16;;;;;;;23.50;14.48;;;;;;;;;;5145488;27;20075;-58
2022/01/27 00:54:44;;;;;;;26.77;13.60;;;;;;;;;;5146023;27;20039;-59
2022/01/27 00:58:03;;;;;;;35.65;15.35;;;;;;;;;;5145956;27;20506;-59
2022/01/27 01:00:00;;;;;;;27.58;15.45;;;;;;;;;;5142093;27;20046;-60
2022/01/27 01:02:53;;;;;;;36.17;15.73;;;;;;;;;;5146132;27;20586;-59
2022/01/27 01:15:50;;;;;;;29.05;14.15;;;;;;;;;;5145265;27;20067;-60
2022/01/27 01:31:43;;;;;;;33.15;14.07;;;;;;;;;;5145442;27;20054;-59
2022/01/27 01:34:20;;;;;;;35.70;16.50;;;;;;;;;;5145826;27;20045;-59
2022/01/27 01:39:19;;;;;;;34.40;16.55;;;;;;;;;;5145569;27;20047;-59
2022/01/27 01:41:45;;;;;;;37.88;17.60;;;;;;;;;;5145407;27;20051;-59
2022/01/27 01:44:12;;;;;;;31.85;17.45;;;;;;;;;;5145579;27;20102;-60
2022/01/27 01:46:38;;;;;;;33.33;17.42;;;;;;;;;;5145520;27;20049;-59
2022/01/27 01:49:05;;;;;;;39.47;17.02;;;;;;;;;;5145495;27;20080;-59
2022/01/27 01:51:32;;;;;;;37.75;17.88;;;;;;;;;;5144824;27;20050;-59
2022/01/27 01:53:58;;;;;;;40.53;18.42;;;;;;;;;;5145755;28;20051;-59
2022/01/27 01:56:25;;;;;;;35.05;18.10;;;;;;;;;;5148805;27;20068;-59
2022/01/27 01:58:51;;;;;;;35.92;16.25;;;;;;;;;;5152538;27;20039;-59
2022/01/27 02:01:18;;;;;;;37.60;17.73;;;;;;;;;;5152163;27;20039;-59
2022/01/27 02:03:45;;;;;;;29.30;16.77;;;;;;;;;;5152184;27;20055;-60
2022/01/27 02:06:19;;;;;;;38.35;18.83;;;;;;;;;;5151518;27;20376;-58
2022/01/27 02:09:13;;;;;;;35.28;18.38;;;;;;;;;;5152470;27;20066;-59
2022/01/27 02:19:56;;;;;;;32.50;16.83;;;;;;;;;;5152073;27;20047;-60
2022/01/27 02:22:22;;;;;;;39.03;18.87;;;;;;;;;;5151714;27;20503;-58
2022/01/27 02:24:50;;;;;;;34.83;17.25;;;;;;;;;;5152042;27;20049;-60
2022/01/27 02:27:17;;;;;;;37.25;19.35;;;;;;;;;;5151645;27;20130;-59
2022/01/27 02:29:44;;;;;;;30.08;18.25;;;;;;;;;;5151886;27;20039;-58
2022/01/27 02:32:11;;;;;;;34.58;18.38;;;;;;;;;;5151789;27;20141;-58
2022/01/27 02:34:37;;;;;;;42.25;18.90;;;;;;;;;;5152135;27;20035;-58
2022/01/27 02:37:03;;;;;;;32.45;17.77;;;;;;;;;;5151457;27;20047;-58
2022/01/27 02:39:30;;;;;;;36.05;19.65;;;;;;;;;;5151482;27;20044;-58
2022/01/27 02:41:57;;;;;;;34.75;19.33;;;;;;;;;;5151534;27;20487;-58
2022/01/27 02:44:29;;;;;;;39.50;19.30;;;;;;;;;;5151818;27;20039;-60
2022/01/27 02:46:56;;;;;;;39.97;19.65;;;;;;;;;;5151384;27;20070;-59
2022/01/27 02:49:22;;;;;;;46.78;22.08;;;;;;;;;;5151774;27;20103;-58
2022/01/27 02:51:48;;;;;;;36.13;19.70;;;;;;;;;;5151510;27;20111;-58
2022/01/27 02:54:14;;;;;;;32.53;19.17;;;;;;;;;;5151757;27;20039;-58
2022/01/27 02:56:45;;;;;;;42.40;19.45;;;;;;;;;;5151176;27;20042;-58
2022/01/27 02:59:12;;;;;;;35.65;18.02;;;;;;;;;;5151679;27;20043;-58
2022/01/27 03:01:39;;;;;;;31.42;18.08;;;;;;;;;;5151305;27;20066;-60
2022/01/27 03:04:06;;;;;;;44.22;20.00;;;;;;;;;;5151353;27;20055;-61
2022/01/27 03:06:32;;;;;;;36.92;20.45;;;;;;;;;;5150872;27;20463;-60
2022/01/27 03:08:58;;;;;;;39.50;20.92;;;;;;;;;;5147248;27;20051;-60
2022/01/27 03:11:53;;;;;;;37.85;20.10;;;;;;;;;;5148059;27;20051;-60
2022/01/27 03:14:22;;;;;;;38.15;21.10;;;;;;;;;;5135074;27;20051;-60
2022/01/27 03:16:49;;;;;;;45.25;22.75;;;;;;;;;;5148087;27;20071;-60
2022/01/27 03:19:15;;;;;;;38.17;19.92;;;;;;;;;;5147926;27;20047;-60
2022/01/27 03:21:41;;;;;;;37.25;18.77;;;;;;;;;;5147930;27;20051;-58
2022/01/27 03:24:08;;;;;;;38.42;21.00;;;;;;;;;;5148043;27;20043;-58
2022/01/27 03:26:34;;;;;;;45.63;21.65;;;;;;;;;;5167143;27;20071;-58
2022/01/27 03:29:00;;;;;;;41.55;20.77;;;;;;;;;;5169031;27;20043;-58
2022/01/27 03:31:27;;;;;;;39.28;21.77;;;;;;;;;;5168775;27;20075;-59
2022/01/27 03:33:53;;;;;;;41.70;20.83;;;;;;;;;;5167762;27;20042;-59
2022/01/27 03:36:19;;;;;;;33.95;20.27;;;;;;;;;;5150777;27;20050;-58
2022/01/27 03:38:46;;;;;;;36.00;19.73;;;;;;;;;;5127889;27;20043;-58
2022/01/27 03:41:17;;;;;;;46.50;19.95;;;;;;;;;;5126956;28;20047;-58
2022/01/27 03:43:43;;;;;;;33.47;19.65;;;;;;;;;;5127149;28;20061;-58
2022/01/27 03:46:10;;;;;;;36.83;21.38;;;;;;;;;;5158314;27;20104;-58
2022/01/27 03:48:36;;;;;;;40.55;18.55;;;;;;;;;;5168587;27;20031;-58
2022/01/27 03:51:02;;;;;;;37.60;18.73;;;;;;;;;;5167980;27;20095;-59
2022/01/27 03:53:29;;;;;;;36.58;20.05;;;;;;;;;;5168534;27;20049;-59
2022/01/27 03:55:55;;;;;;;37.53;19.23;;;;;;;;;;5154549;27;20051;-59
2022/01/27 03:58:21;;;;;;;35.92;18.45;;;;;;;;;;5147574;27;20130;-59
2022/01/27 04:00:47;;;;;;;33.85;18.88;;;;;;;;;;5147381;27;20043;-59
2022/01/27 04:03:15;;;;;;;38.22;19.75;;;;;;;;;;5147511;27;20106;-59
2022/01/27 04:05:49;;;;;;;30.17;17.67;;;;;;;;;;5157724;27;20054;-59
2022/01/27 04:08:15;;;;;;;39.25;17.30;;;;;;;;;;5168003;27;20047;-59
2022/01/27 04:10:42;;;;;;;37.20;18.73;;;;;;;;;;5167587;27;20078;-59
2022/01/27 04:13:08;;;;;;;46.60;19.20;;;;;;;;;;5168158;27;20390;-59
2022/01/27 04:15:35;;;;;;;45.75;18.85;;;;;;;;;;5157599;27;20277;-59
2022/01/27 04:18:01;;;;;;;41.80;19.33;;;;;;;;;;5147365;27;20142;-59
2022/01/27 04:20:27;;;;;;;40.10;17.17;;;;;;;;;;5146278;27;20043;-58
2022/01/27 04:22:54;;;;;;;33.63;18.52;;;;;;;;;;5147068;27;20102;-61
2022/01/27 04:25:20;;;;;;;37.72;19.10;;;;;;;;;;5153515;27;20106;-58
2022/01/27 04:27:50;;;;;;;35.70;18.83;;;;;;;;;;5167396;27;20080;-60
2022/01/27 04:30:19;;;;;;;39.92;18.40;;;;;;;;;;5167643;27;20129;-58
2022/01/27 04:32:47;;;;;;;35.45;17.00;;;;;;;;;;5167944;27;20047;-58
2022/01/27 04:35:17;;;;;;;44.47;18.85;;;;;;;;;;5160705;27;20122;-58
2022/01/27 04:37:57;;;;;;;43.33;19.77;;;;;;;;;;5146778;27;20043;-58
2022/01/27 04:40:36;;;;;;;31.92;17.48;;;;;;;;;;5146424;27;20051;-58
2022/01/27 04:43:15;;;;;;;33.65;16.42;;;;;;;;;;5146658;27;20039;-58
2022/01/27 04:48:30;;;;;;;38.90;15.73;;;;;;;;;;5154549;27;20058;-58
2022/01/27 04:51:04;;;;;;;34.95;18.33;;;;;;;;;;5145778;27;20514;-59
2022/01/27 04:53:35;;;;;;;45.92;18.40;;;;;;;;;;5146477;27;20039;-59
2022/01/27 04:56:01;;;;;;;37.08;16.90;;;;;;;;;;5160582;27;20417;-58
2022/01/27 04:58:32;;;;;;;43.42;18.20;;;;;;;;;;5167203;27;20062;-58
2022/01/27 05:01:00;;;;;;;43.60;16.27;;;;;;;;;;5167262;27;20053;-59
2022/01/27 05:05:59;;;;;;;41.58;17.77;;;;;;;;;;5145738;27;20047;-59
2022/01/27 05:08:25;;;;;;;30.05;16.02;;;;;;;;;;5146314;27;20099;-60
2022/01/27 05:13:46;;;;;;;38.70;16.85;;;;;;;;;;5154384;27;20043;-58
2022/01/27 05:16:12;;;;;;;51.47;19.85;;;;;;;;;;5166553;27;20054;-59
2022/01/27 05:18:39;;;;;;;46.80;17.90;;;;;;;;;;5167085;27;20046;-59
2022/01/27 05:21:05;;;;;;;55.88;20.23;;;;;;;;;;5165942;27;20106;-59
2022/01/27 05:23:31;;;;;;;47.03;20.10;;;;;;;;;;5158903;27;20518;-59
2022/01/27 05:25:57;;;;;;;51.53;19.55;;;;;;;;;;5145336;27;20043;-58
2022/01/27 05:28:23;;;;;;;54.55;22.92;;;;;;;;;;5145508;27;20107;-58
2022/01/27 05:30:49;;;;;;;38.55;19.77;;;;;;;;;;5144789;27;20047;-58
2022/01/27 05:33:16;;;;;;;54.25;21.33;;;;;;;;;;5153426;27;20092;-58
2022/01/27 05:35:45;;;;;;;49.47;19.83;;;;;;;;;;5165989;27;20053;-58
2022/01/27 05:38:13;;;;;;;56.72;21.67;;;;;;;;;;5152757;27;20043;-59
2022/01/27 05:40:39;;;;;;;49.55;20.88;;;;;;;;;;5145598;27;20051;-58
2022/01/27 05:43:05;;;;;;;64.70;22.83;;;;;;;;;;5151649;27;20038;-58
2022/01/27 05:45:31;;;;;;;39.58;20.00;;;;;;;;;;5166568;27;20046;-58
2022/01/27 05:47:57;;;;;;;43.90;18.85;;;;;;;;;;5166416;27;20047;-58
2022/01/27 05:50:23;;;;;;;46.88;20.20;;;;;;;;;;5165652;27;20069;-58
2022/01/27 05:52:49;;;;;;;40.53;18.13;;;;;;;;;;5162516;27;20088;-59
2022/01/27 05:55:15;;;;;;;48.38;18.75;;;;;;;;;;5145496;27;20096;-59
2022/01/27 05:57:42;;;;;;;45.42;17.83;;;;;;;;;;5145627;28;20055;-58
2022/01/27 06:00:10;;;;;;;51.58;19.08;;;;;;;;;;5145413;28;20051;-59
2022/01/27 06:02:36;;;;;;;31.08;14.75;;;;;;;;;;5148258;27;20064;-58
2022/01/27 06:05:02;;;;;;;53.50;17.80;;;;;;;;;;5165647;27;20054;-59
2022/01/27 06:07:29;;;;;;;49.65;19.77;;;;;;;;;;5166113;27;20156;-58
2022/01/27 06:09:55;;;;;;;52.60;19.60;;;;;;;;;;5166240;27;20099;-58
2022/01/27 06:12:22;;;;;;;44.10;19.08;;;;;;;;;;5164316;27;20047;-58
2022/01/27 06:14:48;;;;;;;48.88;18.92;;;;;;;;;;5145558;28;20525;-58
2022/01/27 06:17:14;;;;;;;37.60;15.25;;;;;;;;;;5144138;28;20051;-59
2022/01/27 06:19:44;;;;;;;48.58;17.73;;;;;;;;;;5145334;28;20043;-58
2022/01/27 06:22:11;;;;;;;46.65;17.88;;;;;;;;;;5158484;27;20064;-58
2022/01/27 06:24:41;;;;;;;49.42;18.90;;;;;;;;;;5166092;27;20098;-59
2022/01/27 06:27:07;;;;;;;43.38;17.67;;;;;;;;;;5164022;27;20078;-59
2022/01/27 06:29:34;;;;;;;43.08;18.10;;;;;;;;;;5145201;28;20043;-59
2022/01/27 06:32:00;;;;;;;34.90;15.88;;;;;;;;;;5157536;27;20047;-59
2022/01/27 06:34:26;;;;;;;51.55;18.88;;;;;;;;;;5165908;27;20047;-59
2022/01/27 06:36:52;;;;;;;54.85;18.08;;;;;;;;;;5165532;27;20091;-59
2022/01/27 06:39:18;;;;;;;45.53;17.98;;;;;;;;;;5165939;27;20039;-59
2022/01/27 06:41:45;;;;;;;48.13;18.67;;;;;;;;;;5153599;27;20103;-59
2022/01/27 06:44:11;;;;;;;48.05;18.05;;;;;;;;;;5147443;27;20051;-58
2022/01/27 06:46:38;;;;;;;41.63;17.13;;;;;;;;;;5147803;27;20098;-58
2022/01/27 06:49:04;;;;;;;44.53;16.55;;;;;;;;;;5148111;27;20043;-59
2022/01/27 06:51:31;;;;;;;44.65;17.02;;;;;;;;;;5150352;27;20417;-59
2022/01/27 06:53:58;;;;;;;37.97;17.23;;;;;;;;;;5157261;27;20383;-59
2022/01/27 06:56:25;;;;;;;33.80;14.55;;;;;;;;;;5148402;27;20095;-59
2022/01/27 06:58:51;;;;;;;46.55;17.85;;;;;;;;;;5149617;27;20047;-59
2022/01/27 07:01:17;;;;;;;37.55;15.13;;;;;;;;;;5147784;27;20039;-58
2022/01/27 07:03:43;;;;;;;39.97;17.15;;;;;;;;;;5147117;27;20103;-59
2022/01/27 07:06:11;;;;;;;43.67;17.17;;;;;;;;;;5152506;27;20043;-58
2022/01/27 07:08:37;;;;;;;38.88;16.55;;;;;;;;;;5163629;27;20066;-58
2022/01/27 07:11:03;;;;;;;51.30;17.48;;;;;;;;;;5149739;27;20082;-58
2022/01/27 07:13:29;;;;;;;36.80;17.40;;;;;;;;;;5148589;27;20054;-58
2022/01/27 07:15:56;;;;;;;44.20;17.98;;;;;;;;;;5150295;27;20096;-58
2022/01/27 07:18:22;;;;;;;37.83;16.75;;;;;;;;;;5148209;27;20051;-58
2022/01/27 07:20:49;;;;;;;38.45;15.50;;;;;;;;;;5157056;27;20127;-58
2022/01/27 07:23:15;;;;;;;35.33;15.65;;;;;;;;;;5149080;27;20102;-58
2022/01/27 07:25:41;;;;;;;26.95;14.23;;;;;;;;;;5141489;27;20490;-58
2022/01/27 07:28:07;;;;;;;40.38;16.63;;;;;;;;;;5143010;27;20043;-58
2022/01/27 07:30:33;;;;;;;40.50;17.10;;;;;;;;;;5145892;27;20031;-58
2022/01/27 07:33:00;;;;;;;39.47;16.25;;;;;;;;;;5145717;27;20043;-59
2022/01/27 07:35:26;;;;;;;44.47;17.73;;;;;;;;;;5147018;27;20043;-58
2022/01/27 07:37:52;;;;;;;29.17;12.68;;;;;;;;;;5147470;27;20131;-58
2022/01/27 07:40:18;;;;;;;31.38;15.32;;;;;;;;;;5146246;27;20122;-58
2022/01/27 07:42:44;;;;;;;45.42;15.23;;;;;;;;;;5141479;27;20095;-58
2022/01/27 07:45:10;;;;;;;35.33;15.38;;;;;;;;;;5146193;27;20035;-58
2022/01/27 07:47:36;;;;;;;37.47;14.18;;;;;;;;;;5147038;27;20051;-58
2022/01/27 07:50:03;;;;;;;36.42;14.07;;;;;;;;;;5146999;27;20083;-59
2022/01/27 07:52:29;;;;;;;40.90;16.67;;;;;;;;;;5139838;27;20031;-58
2022/01/27 07:54:55;;;;;;;37.83;14.80;;;;;;;;;;5145521;27;20038;-58
2022/01/27 07:57:21;;;;;;;43.70;15.43;;;;;;;;;;5141376;27;20498;-58
2022/01/27 07:59:48;;;;;;;43.60;15.02;;;;;;;;;;5142644;27;20071;-58
2022/01/27 08:02:14;;;;;;;41.50;14.25;;;;;;;;;;5138588;27;20078;-58
2022/01/27 08:04:40;;;;;;;43.92;14.70;;;;;;;;;;5146774;27;20126;-58
2022/01/27 08:07:08;;;;;;;37.17;13.90;;;;;;;;;;5144453;27;20046;-59
2022/01/27 08:09:34;;;;;;;38.28;13.43;;;;;;;;;;5142583;27;20402;-58
2022/01/27 08:12:00;;;;;;;33.22;12.18;;;;;;;;;;5146717;27;20043;-58
2022/01/27 08:14:26;;;;;;;38.33;13.57;;;;;;;;;;5147320;27;20099;-59
2022/01/27 08:16:52;;;;;;;33.70;12.38;;;;;;;;;;5143085;27;20054;-59
2022/01/27 08:19:18;;;;;;;33.50;12.93;;;;;;;;;;5145483;27;20098;-58
2022/01/27 08:21:45;;;;;;;36.67;13.45;;;;;;;;;;5145152;27;20120;-58
2022/01/27 08:24:11;;;;;;;33.88;11.48;;;;;;;;;;5146234;27;20065;-58
2022/01/27 08:26:41;;;;;;;32.13;12.85;;;;;;;;;;5145633;27;20051;-58
2022/01/27 08:29:45;;;;;;;32.60;10.82;;;;;;;;;;5145628;27;20112;-57
2022/01/27 08:32:02;;;;;;;32.97;9.77;;;;;;;;;;5142772;27;20090;-58
2022/01/27 08:34:41;;;;;;;31.23;10.48;;;;;;;;;;5146470;27;20061;-58
2022/01/27 08:37:17;;;;;;;36.22;10.05;;;;;;;;;;5139797;27;20514;-58
2022/01/27 08:39:43;;;;;;;23.85;8.45;;;;;;;;;;5138790;27;20422;-59
2022/01/27 08:42:10;;;;;;;28.27;9.30;;;;;;;;;;5139884;27;20035;-59
2022/01/27 08:44:37;;;;;;;36.00;10.27;;;;;;;;;;5140814;27;20043;-57
2022/01/27 08:47:03;;;;;;;23.52;8.93;;;;;;;;;;5143631;27;20526;-57
2022/01/27 08:49:29;;;;;;;32.60;9.23;;;;;;;;;;5143761;27;20151;-57
2022/01/27 08:51:56;;;;;;;29.27;9.30;;;;;;;;;;5143958;27;20054;-57
2022/01/27 08:54:22;;;;;;;26.35;9.02;;;;;;;;;;5145431;27;20104;-58
2022/01/27 08:56:49;;;;;;;40.38;7.65;;;;;;;;;;5142852;27;20078;-58
2022/01/27 08:59:16;;;;;;;31.60;8.43;;;;;;;;;;5145666;27;20054;-57
2022/01/27 09:01:43;;;;;;;28.98;8.20;;;;;;;;;;5144726;27;20053;-58
2022/01/27 09:04:09;;;;;;;20.88;7.15;;;;;;;;;;5144882;27;20050;-58
2022/01/27 09:06:36;;;;;;;23.85;8.55;;;;;;;;;;5139588;27;20050;-58
2022/01/27 09:09:03;;;;;;;27.23;6.85;;;;;;;;;;5145701;27;20039;-58
2022/01/27 09:11:30;;;;;;;23.67;7.47;;;;;;;;;;5152656;27;20102;-58
2022/01/27 09:13:57;;;;;;;;;;;;;;;;;;5154659;27;20183;-58
2022/01/27 09:16:26;;;;;;;28.23;7.65;;;;;;;;;;5143303;27;19915;-57
2022/01/27 09:18:52;;;;;;;31.88;7.78;;;;;;;;;;5145611;27;20221;-58
2022/01/27 09:21:23;;;;;;;30.20;9.07;;;;;;;;;;5145415;27;20043;-58
2022/01/27 09:23:50;;;;;;;18.95;5.80;;;;;;;;;;5134418;27;20079;-58
2022/01/27 09:26:41;;;;;;;23.27;5.10;;;;;;;;;;5143914;27;20077;-58
2022/01/27 09:29:08;;;;;;;22.95;5.75;;;;;;;;;;5141681;27;20039;-57
2022/01/27 09:31:34;;;;;;;17.17;5.35;;;;;;;;;;5145328;27;20050;-57
2022/01/27 09:34:00;;;;;;;20.02;6.07;;;;;;;;;;5139694;27;20051;-60
2022/01/27 09:36:27;;;;;;;24.52;4.93;;;;;;;;;;5140982;27;20043;-58
2022/01/27 09:38:53;;;;;;;18.25;5.35;;;;;;;;;;5142595;27;20068;-58
2022/01/27 09:41:20;;;;;;;19.65;6.18;;;;;;;;;;5140916;27;20035;-57
2022/01/27 09:43:54;;;;;;;23.33;5.65;;;;;;;;;;5143850;27;20062;-59
2022/01/27 09:46:25;;;;;;;24.70;6.47;;;;;;;;;;5152289;27;20444;-57
2022/01/27 09:48:52;;;;;;;17.00;6.00;;;;;;;;;;5144655;27;20088;-58
2022/01/27 09:53:45;;;;;;;29.33;6.40;;;;;;;;;;5143103;27;20043;-58
2022/01/27 09:56:11;;;;;;;29.80;6.70;;;;;;;;;;5141856;27;20035;-57
2022/01/27 09:58:37;;;;;;;19.30;4.85;;;;;;;;;;5139895;27;20043;-57
2022/01/27 10:01:04;;;;;;;29.75;7.03;;;;;;;;;;5144735;27;20054;-57
2022/01/27 10:03:31;;;;;;;23.40;5.30;;;;;;;;;;5144719;27;20519;-57
2022/01/27 10:06:15;;;;;;;24.45;5.80;;;;;;;;;;5140458;27;20068;-58
2022/01/27 10:08:42;;;;;;;21.02;4.68;;;;;;;;;;5143605;27;20042;-57
2022/01/27 10:11:15;;;;;;;18.75;5.30;;;;;;;;;;5142180;27;20047;-59
2022/01/27 10:13:43;;;;;;;31.90;6.22;;;;;;;;;;5141703;27;20110;-57
2022/01/27 10:16:27;;;;;;;22.10;5.32;;;;;;;;;;5139762;27;20035;-57
2022/01/27 10:19:03;;;;;;;21.17;4.43;;;;;;;;;;5140224;27;20070;-58
2022/01/27 10:21:33;;;;;;;23.88;4.70;;;;;;;;;;5143680;27;20043;-58
2022/01/27 10:24:14;;;;;;;35.10;6.18;;;;;;;;;;5148188;27;20050;-57
2022/01/27 10:26:46;;;;;;;30.90;5.72;;;;;;;;;;5145114;27;20047;-58
2022/01/27 10:29:17;;;;;;;28.95;5.13;;;;;;;;;;5145313;27;20039;-57
2022/01/27 10:31:44;;;;;;;23.67;5.10;;;;;;;;;;5143809;27;20051;-58
2022/01/27 10:34:10;;;;;;;30.52;6.07;;;;;;;;;;5145256;27;20043;-60
2022/01/27 10:36:41;;;;;;;21.85;4.50;;;;;;;;;;5147028;27;20057;-57
2022/01/27 10:39:11;;;;;;;17.08;4.38;;;;;;;;;;5146878;27;20046;-57
2022/01/27 10:41:40;;;;;;;20.25;4.45;;;;;;;;;;5146598;27;20075;-57
2022/01/27 10:44:18;;;;;;;35.03;5.47;;;;;;;;;;5147560;27;20039;-59
2022/01/27 10:47:06;;;;;;;23.13;5.15;;;;;;;;;;5141616;27;20051;-57
2022/01/27 10:49:36;;;;;;;23.30;4.95;;;;;;;;;;5144414;27;20054;-58
2022/01/27 10:52:02;;;;;;;32.47;5.78;;;;;;;;;;5145869;27;20058;-57
2022/01/27 10:54:41;;;;;;;25.33;4.68;;;;;;;;;;5146589;27;20038;-59
2022/01/27 10:57:09;;;;;;;38.50;5.80;;;;;;;;;;5141209;27;20092;-58
2022/01/27 10:59:35;;;;;;;22.48;4.72;;;;;;;;;;5147185;27;20031;-59
2022/01/27 11:02:05;;;;;;;22.15;5.10;;;;;;;;;;5146492;27;20043;-59
2022/01/27 11:04:37;;;;;;;21.02;4.25;;;;;;;;;;5147010;27;20047;-58
2022/01/27 11:07:04;;;;;;;27.48;5.72;;;;;;;;;;5145732;27;20043;-58
2022/01/27 11:09:34;;;;;;;25.52;5.95;;;;;;;;;;5146563;27;20039;-58
2022/01/27 11:12:06;;;;;;;22.00;4.57;;;;;;;;;;5146737;27;20498;-58
2022/01/27 11:14:32;;;;;;;20.98;5.07;;;;;;;;;;5145243;27;20065;-58
2022/01/27 11:17:00;;;;;;;21.63;4.50;;;;;;;;;;5147276;27;20170;-58
2022/01/27 11:22:04;;;;;;;23.48;4.80;;;;;;;;;;5143812;27;20051;-58
2022/01/27 11:27:31;;;;;;;22.13;4.78;;;;;;;;;;5140871;27;20106;-58
2022/01/27 11:30:01;;;;;;;19.80;4.38;;;;;;;;;;5149045;27;20043;-58
2022/01/27 11:32:39;;;;;;;17.55;4.60;;;;;;;;;;5147035;27;20098;-58
2022/01/27 11:35:19;;;;;;;15.38;4.32;;;;;;;;;;5141270;27;20364;-58
2022/01/27 11:37:49;;;;;;;25.80;5.68;;;;;;;;;;5143741;27;20043;-57
2022/01/27 11:40:17;;;;;;;26.08;5.65;;;;;;;;;;5144978;27;20087;-58
2022/01/27 11:42:45;;;;;;;27.00;6.32;;;;;;;;;;5146614;27;20051;-58
2022/01/27 11:45:23;;;;;;;32.13;4.65;;;;;;;;;;5146920;27;20043;-58
2022/01/27 11:47:59;;;;;;;25.13;4.03;;;;;;;;;;5141934;27;20131;-58
2022/01/27 11:53:00;;;;;;;23.13;4.45;;;;;;;;;;5132236;27;20073;-58
2022/01/27 11:55:26;;;;;;;29.20;6.60;;;;;;;;;;5128103;27;20036;-58
2022/01/27 11:57:52;;;;;;;24.27;5.00;;;;;;;;;;5133772;27;20040;-58
2022/01/27 12:00:20;;;;;;;29.10;5.03;;;;;;;;;;5135813;27;20116;-58
2022/01/27 12:03:01;;;;;;;23.25;4.20;;;;;;;;;;5153952;27;20061;-58
2022/01/27 12:05:30;;;;;;;23.67;3.53;;;;;;;;;;5164148;27;20038;-59
2022/01/27 12:08:15;;;;;;;28.20;4.18;;;;;;;;;;5132858;27;20051;-58
2022/01/27 12:10:46;;;;;;;25.20;5.05;;;;;;;;;;5145491;27;20043;-58
2022/01/27 12:19:06;;;;;;;12.48;3.47;;;;;;;;;;5146789;27;20051;-58
2022/01/27 12:21:37;;;;;;;18.77;4.13;;;;;;;;;;5139947;27;20043;-58
2022/01/27 12:26:49;;;;;;;19.73;4.88;;;;;;;;;;5151785;27;20115;-58
2022/01/27 12:29:23;;;;;;;24.45;4.03;;;;;;;;;;5147081;27;20103;-58
2022/01/27 12:31:50;;;;;;;30.55;5.03;;;;;;;;;;5158239;27;20050;-61
2022/01/27 12:34:16;;;;;;;24.80;4.50;;;;;;;;;;5152303;27;20050;-60
2022/01/27 12:36:55;;;;;;;27.30;4.38;;;;;;;;;;5166857;27;20163;-58
2022/01/27 12:39:21;;;;;;;27.77;4.07;;;;;;;;;;5152841;27;20078;-58
2022/01/27 12:41:48;;;;;;;31.73;4.90;;;;;;;;;;5162746;27;20051;-58
2022/01/27 12:44:15;;;;;;;26.13;5.33;;;;;;;;;;5147695;27;20101;-58
2022/01/27 12:47:00;;;;;;;18.20;4.32;;;;;;;;;;5157468;27;20050;-58
2022/01/27 12:49:46;;;;;;;25.92;5.95;;;;;;;;;;5160982;27;20087;-58
2022/01/27 12:52:18;;;;;;;20.88;4.65;;;;;;;;;;5145753;27;20043;-58
2022/01/27 12:54:45;;;;;;;29.08;4.70;;;;;;;;;;5147086;27;20077;-58
2022/01/27 12:57:13;;;;;;;26.77;4.75;;;;;;;;;;5139849;27;20043;-58
2022/01/27 12:59:43;;;;;;;27.85;5.28;;;;;;;;;;5132274;27;20092;-58
2022/01/27 13:02:10;;;;;;;29.35;4.88;;;;;;;;;;5138571;27;20047;-58
2022/01/27 13:04:37;;;;;;;23.02;4.07;;;;;;;;;;5146983;27;20047;-58
2022/01/27 13:07:03;;;;;;;26.70;4.63;;;;;;;;;;5144190;27;20039;-58
2022/01/27 13:09:31;;;;;;;29.35;4.63;;;;;;;;;;5140462;27;20046;-58
2022/01/27 13:12:25;;;;;;;30.08;4.03;;;;;;;;;;5141452;27;20080;-59
2022/01/27 13:14:58;;;;;;;27.42;4.90;;;;;;;;;;5142123;27;20047;-58
2022/01/27 13:17:39;;;;;;;23.70;3.47;;;;;;;;;;5144380;27;20110;-58
2022/01/27 13:20:10;;;;;;;33.17;4.85;;;;;;;;;;5139215;27;20088;-59
2022/01/27 13:22:46;;;;;;;19.42;4.25;;;;;;;;;;5143051;27;20058;-59
2022/01/27 13:25:12;;;;;;;31.70;5.15;;;;;;;;;;5144660;27;20047;-59
2022/01/27 13:27:38;;;;;;;31.90;5.22;;;;;;;;;;5145429;27;20047;-58
2022/01/27 13:30:05;;;;;;;32.10;4.38;;;;;;;;;;5144092;27;20043;-59
2022/01/27 13:32:31;;;;;;;29.50;4.70;;;;;;;;;;5144642;27;20577;-58
2022/01/27 13:34:57;;;;;;;25.50;4.32;;;;;;;;;;5138495;27;20410;-57
2022/01/27 13:37:30;;;;;;;32.55;5.20;;;;;;;;;;5144354;27;20039;-58
2022/01/27 13:42:23;;;;;;;31.10;6.75;;;;;;;;;;5141856;27;20073;-58
2022/01/27 13:44:53;;;;;;;26.92;7.43;;;;;;;;;;5137838;27;20051;-59
2022/01/27 13:47:31;;;;;;;26.40;5.57;;;;;;;;;;5143327;27;20064;-58
2022/01/27 13:50:10;;;;;;;30.27;4.20;;;;;;;;;;5155423;27;20081;-58
2022/01/27 13:52:49;;;;;;;16.95;4.97;;;;;;;;;;5146823;27;20062;-59
2022/01/27 13:55:15;;;;;;;;;;;;;;;;;;5134555;27;20043;-58
2022/01/27 13:57:49;;;;;;;28.35;4.93;;;;;;;;;;5148709;27;19919;-58
2022/01/27 14:00:20;;;;;;;25.35;4.32;;;;;;;;;;5159198;27;20035;-58
2022/01/27 14:02:48;;;;;;;28.15;4.65;;;;;;;;;;5154295;27;20504;-58
2022/01/27 14:05:21;;;;;;;19.35;4.35;;;;;;;;;;5149705;27;20039;-58
2022/01/27 14:07:51;;;;;;;24.48;4.38;;;;;;;;;;5148756;27;20054;-58
2022/01/27 14:10:19;;;;;;;24.10;3.00;;;;;;;;;;5144438;27;20130;-58
2022/01/27 14:12:46;;;;;;;27.98;4.72;;;;;;;;;;5148318;27;20043;-57
2022/01/27 14:15:27;;;;;;;30.45;3.55;;;;;;;;;;5154618;27;20076;-57
2022/01/27 14:18:01;;;;;;;32.35;4.55;;;;;;;;;;5148974;27;20054;-58
2022/01/27 14:20:27;;;;;;;23.98;5.20;;;;;;;;;;5150580;27;20481;-58
2022/01/27 14:23:12;;;;;;;23.58;3.88;;;;;;;;;;5148872;27;20126;-58
2022/01/27 14:25:45;;;;;;;21.45;4.13;;;;;;;;;;5148041;27;20097;-58
2022/01/27 14:28:11;;;;;;;27.90;4.43;;;;;;;;;;5145466;27;20039;-57
2022/01/27 14:30:38;;;;;;;19.48;4.20;;;;;;;;;;5146347;27;20093;-58
2022/01/27 14:33:04;;;;;;;28.02;3.67;;;;;;;;;;5149451;27;20550;-58
2022/01/27 14:35:30;;;;;;;23.38;4.22;;;;;;;;;;5137462;27;20039;-58
2022/01/27 14:37:57;;;;;;;33.03;5.63;;;;;;;;;;5146086;27;20468;-58
2022/01/27 14:40:23;;;;;;;31.17;3.72;;;;;;;;;;5148309;27;20051;-58
2022/01/27 14:42:50;;;;;;;16.52;3.30;;;;;;;;;;5150169;27;20047;-58
2022/01/27 14:45:18;;;;;;;24.98;5.25;;;;;;;;;;5149313;27;20035;-58
2022/01/27 14:47:47;;;;;;;27.70;4.93;;;;;;;;;;5146425;27;20238;-58
2022/01/27 14:50:16;;;;;;;29.10;4.30;;;;;;;;;;5140177;27;20051;-60
2022/01/27 14:52:44;;;;;;;27.60;4.22;;;;;;;;;;5147726;27;20047;-58
2022/01/27 14:55:11;;;;;;;21.35;4.93;;;;;;;;;;5135274;27;20058;-58
2022/01/27 14:57:37;;;;;;;14.15;3.15;;;;;;;;;;5141748;27;20112;-58
2022/01/27 15:00:08;;;;;;;32.78;5.43;;;;;;;;;;5141587;28;20035;-59
2022/01/27 15:02:35;;;;;;;31.10;4.38;;;;;;;;;;5143638;27;20047;-57
2022/01/27 15:05:02;;;;;;;22.33;3.38;;;;;;;;;;5145641;27;20043;-59
2022/01/27 15:07:28;;;;;;;29.85;5.75;;;;;;;;;;5146200;27;20057;-57
2022/01/27 15:09:54;;;;;;;22.95;4.40;;;;;;;;;;5146292;27;20062;-57
2022/01/27 15:12:20;;;;;;;18.42;3.70;;;;;;;;;;5144646;27;20477;-57
2022/01/27 15:20:16;;;;;;;26.38;5.70;;;;;;;;;;5145553;27;20058;-57
2022/01/27 15:22:42;;;;;;;27.30;4.20;;;;;;;;;;5146093;27;20078;-57
2022/01/27 15:25:11;;;;;;;28.80;4.82;;;;;;;;;;5144894;27;20059;-57
2022/01/27 15:27:37;;;;;;;27.27;4.70;;;;;;;;;;5145320;27;20054;-57
2022/01/27 15:30:05;;;;;;;22.48;3.60;;;;;;;;;;5144663;27;20088;-57
2022/01/27 15:32:31;;;;;;;17.45;4.10;;;;;;;;;;5145572;27;20073;-57
2022/01/27 15:34:58;;;;;;;24.98;4.88;;;;;;;;;;5145432;27;20110;-57
2022/01/27 15:37:25;;;;;;;21.00;4.72;;;;;;;;;;5141597;27;20095;-57
2022/01/27 15:39:55;;;;;;;25.10;4.43;;;;;;;;;;5147043;27;20049;-57
2022/01/27 15:42:22;;;;;;;33.03;3.90;;;;;;;;;;5138838;27;20038;-57
2022/01/27 15:44:48;;;;;;;32.53;4.22;;;;;;;;;;5141164;27;20046;-57
2022/01/27 15:47:15;;;;;;;27.73;4.32;;;;;;;;;;5144764;27;20065;-57
2022/01/27 15:49:41;;;;;;;36.10;4.72;;;;;;;;;;5145477;27;20122;-57